sensor_id;sensor_type;location;lat;lon;timestamp;P1;durP1;ratioP1;P2;durP2;ratioP2
71558;SDS011;59382;43.852;25.952;2022-12-10T00:00:53;13.73;;;7.68;;
71558;SDS011;59382;43.852;25.952;2022-12-10T00:03:27;13.52;;;7.30;;
71558;SDS011;59382;43.852;25.952;2022-12-10T00:05:53;14.93;;;7.78;;
71558;SDS011;59382;43.852;25.952;2022-12-10T00:08:18;16.08;;;8.00;;
71558;SDS011;59382;43.852;25.952;2022-12-10T00:10:44;17.85;;;7.85;;
71558;SDS011;59382;43.852;25.952;2022-12-10T00:13:10;15.23;;;8.20;;
71558;SDS011;59382;43.852;25.952;2022-12-10T00:15:35;15.63;;;8.02;;
71558;SDS011;59382;43.852;25.952;2022-12-10T00:18:01;12.25;;;6.90;;
71558;SDS011;59382;43.852;25.952;2022-12-10T00:20:26;16.48;;;8.45;;
71558;SDS011;59382;43.852;25.952;2022-12-10T00:22:52;15.73;;;7.90;;
71558;SDS011;59382;43.852;25.952;2022-12-10T00:25:17;15.60;;;7.25;;
71558;SDS011;59382;43.852;25.952;2022-12-10T00:27:43;14.02;;;6.68;;
71558;SDS011;59382;43.852;25.952;2022-12-10T00:30:09;12.90;;;6.68;;
71558;SDS011;59382;43.852;25.952;2022-12-10T00:32:35;21.60;;;6.97;;
71558;SDS011;59382;43.852;25.952;2022-12-10T00:35:01;11.25;;;6.63;;
71558;SDS011;59382;43.852;25.952;2022-12-10T00:37:26;7.63;;;5.95;;
71558;SDS011;59382;43.852;25.952;2022-12-10T00:39:53;13.02;;;6.88;;
71558;SDS011;59382;43.852;25.952;2022-12-10T00:42:18;8.27;;;5.63;;
71558;SDS011;59382;43.852;25.952;2022-12-10T00:44:44;9.85;;;6.55;;
71558;SDS011;59382;43.852;25.952;2022-12-10T00:47:09;11.75;;;6.25;;
71558;SDS011;59382;43.852;25.952;2022-12-10T00:49:35;8.57;;;6.43;;
71558;SDS011;59382;43.852;25.952;2022-12-10T00:52:00;9.48;;;5.68;;
71558;SDS011;59382;43.852;25.952;2022-12-10T00:54:26;8.02;;;6.30;;
71558;SDS011;59382;43.852;25.952;2022-12-10T00:56:51;9.50;;;6.80;;
71558;SDS011;59382;43.852;25.952;2022-12-10T00:59:17;12.85;;;7.07;;
71558;SDS011;59382;43.852;25.952;2022-12-10T01:01:43;12.07;;;7.03;;
71558;SDS011;59382;43.852;25.952;2022-12-10T01:04:11;10.95;;;6.70;;
71558;SDS011;59382;43.852;25.952;2022-12-10T01:06:43;15.13;;;7.18;;
71558;SDS011;59382;43.852;25.952;2022-12-10T01:09:12;11.45;;;7.18;;
71558;SDS011;59382;43.852;25.952;2022-12-10T01:11:40;8.65;;;6.68;;
71558;SDS011;59382;43.852;25.952;2022-12-10T01:14:08;9.80;;;6.85;;
71558;SDS011;59382;43.852;25.952;2022-12-10T01:16:35;10.80;;;7.13;;
71558;SDS011;59382;43.852;25.952;2022-12-10T01:19:02;13.27;;;7.30;;
71558;SDS011;59382;43.852;25.952;2022-12-10T01:21:29;10.98;;;7.18;;
71558;SDS011;59382;43.852;25.952;2022-12-10T01:23:56;11.02;;;7.20;;
71558;SDS011;59382;43.852;25.952;2022-12-10T01:26:24;11.27;;;7.07;;
71558;SDS011;59382;43.852;25.952;2022-12-10T01:28:52;17.98;;;6.78;;
71558;SDS011;59382;43.852;25.952;2022-12-10T01:31:25;12.68;;;7.20;;
71558;SDS011;59382;43.852;25.952;2022-12-10T01:33:52;13.68;;;7.45;;
71558;SDS011;59382;43.852;25.952;2022-12-10T01:36:19;12.63;;;7.57;;
71558;SDS011;59382;43.852;25.952;2022-12-10T01:38:51;10.95;;;6.22;;
71558;SDS011;59382;43.852;25.952;2022-12-10T01:41:39;13.95;;;6.80;;
71558;SDS011;59382;43.852;25.952;2022-12-10T01:44:56;13.20;;;7.15;;
71558;SDS011;59382;43.852;25.952;2022-12-10T01:46:55;13.80;;;7.32;;
71558;SDS011;59382;43.852;25.952;2022-12-10T01:49:24;15.73;;;8.48;;
71558;SDS011;59382;43.852;25.952;2022-12-10T01:51:52;15.23;;;7.68;;
71558;SDS011;59382;43.852;25.952;2022-12-10T01:54:20;15.23;;;6.03;;
71558;SDS011;59382;43.852;25.952;2022-12-10T01:56:49;16.88;;;7.95;;
71558;SDS011;59382;43.852;25.952;2022-12-10T01:59:19;17.42;;;8.23;;
71558;SDS011;59382;43.852;25.952;2022-12-10T02:07:39;14.45;;;6.80;;
71558;SDS011;59382;43.852;25.952;2022-12-10T02:15:23;16.63;;;7.47;;
71558;SDS011;59382;43.852;25.952;2022-12-10T02:17:55;17.50;;;7.13;;
71558;SDS011;59382;43.852;25.952;2022-12-10T02:20:32;14.25;;;6.95;;
71558;SDS011;59382;43.852;25.952;2022-12-10T02:23:04;15.52;;;6.60;;
71558;SDS011;59382;43.852;25.952;2022-12-10T02:25:36;17.75;;;6.80;;
71558;SDS011;59382;43.852;25.952;2022-12-10T02:28:32;10.95;;;6.78;;
71558;SDS011;59382;43.852;25.952;2022-12-10T02:30:59;12.50;;;6.18;;
71558;SDS011;59382;43.852;25.952;2022-12-10T02:33:26;11.57;;;6.10;;
71558;SDS011;59382;43.852;25.952;2022-12-10T02:35:55;14.48;;;6.97;;
71558;SDS011;59382;43.852;25.952;2022-12-10T02:38:25;16.13;;;7.97;;
71558;SDS011;59382;43.852;25.952;2022-12-10T02:40:57;16.23;;;7.82;;
71558;SDS011;59382;43.852;25.952;2022-12-10T02:43:26;16.30;;;7.97;;
71558;SDS011;59382;43.852;25.952;2022-12-10T02:45:53;12.30;;;7.70;;
71558;SDS011;59382;43.852;25.952;2022-12-10T02:48:20;9.93;;;6.25;;
71558;SDS011;59382;43.852;25.952;2022-12-10T02:50:47;8.05;;;5.45;;
71558;SDS011;59382;43.852;25.952;2022-12-10T02:53:13;7.25;;;4.82;;
71558;SDS011;59382;43.852;25.952;2022-12-10T02:55:59;6.85;;;5.60;;
71558;SDS011;59382;43.852;25.952;2022-12-10T02:58:49;6.22;;;4.78;;
71558;SDS011;59382;43.852;25.952;2022-12-10T03:04:11;4.72;;;4.10;;
71558;SDS011;59382;43.852;25.952;2022-12-10T03:06:52;4.97;;;4.38;;
71558;SDS011;59382;43.852;25.952;2022-12-10T03:09:28;5.72;;;4.50;;
71558;SDS011;59382;43.852;25.952;2022-12-10T03:12:01;5.35;;;4.30;;
71558;SDS011;59382;43.852;25.952;2022-12-10T03:14:37;7.32;;;5.15;;
71558;SDS011;59382;43.852;25.952;2022-12-10T03:17:03;6.40;;;4.78;;
71558;SDS011;59382;43.852;25.952;2022-12-10T03:19:39;5.65;;;4.72;;
71558;SDS011;59382;43.852;25.952;2022-12-10T03:22:07;5.22;;;4.13;;
71558;SDS011;59382;43.852;25.952;2022-12-10T03:24:34;7.00;;;5.03;;
71558;SDS011;59382;43.852;25.952;2022-12-10T03:27:00;7.80;;;5.22;;
71558;SDS011;59382;43.852;25.952;2022-12-10T03:29:34;6.65;;;5.10;;
71558;SDS011;59382;43.852;25.952;2022-12-10T03:32:04;6.70;;;4.72;;
71558;SDS011;59382;43.852;25.952;2022-12-10T03:34:33;6.07;;;4.50;;
71558;SDS011;59382;43.852;25.952;2022-12-10T03:37:00;7.05;;;5.35;;
71558;SDS011;59382;43.852;25.952;2022-12-10T03:39:27;6.20;;;4.40;;
71558;SDS011;59382;43.852;25.952;2022-12-10T03:41:53;5.28;;;4.75;;
71558;SDS011;59382;43.852;25.952;2022-12-10T03:44:39;7.20;;;5.75;;
71558;SDS011;59382;43.852;25.952;2022-12-10T03:47:08;5.93;;;4.55;;
71558;SDS011;59382;43.852;25.952;2022-12-10T03:49:37;5.68;;;4.50;;
71558;SDS011;59382;43.852;25.952;2022-12-10T03:52:03;7.28;;;5.47;;
71558;SDS011;59382;43.852;25.952;2022-12-10T03:54:29;5.47;;;4.82;;
71558;SDS011;59382;43.852;25.952;2022-12-10T03:56:55;6.72;;;5.28;;
71558;SDS011;59382;43.852;25.952;2022-12-10T03:59:20;6.28;;;4.85;;
71558;SDS011;59382;43.852;25.952;2022-12-10T04:01:46;7.53;;;5.80;;
71558;SDS011;59382;43.852;25.952;2022-12-10T04:04:11;6.85;;;5.18;;
71558;SDS011;59382;43.852;25.952;2022-12-10T04:06:38;9.25;;;6.03;;
71558;SDS011;59382;43.852;25.952;2022-12-10T04:09:05;5.82;;;5.22;;
71558;SDS011;59382;43.852;25.952;2022-12-10T04:11:30;7.25;;;5.53;;
71558;SDS011;59382;43.852;25.952;2022-12-10T04:13:56;8.77;;;5.40;;
71558;SDS011;59382;43.852;25.952;2022-12-10T04:16:40;8.30;;;5.15;;
71558;SDS011;59382;43.852;25.952;2022-12-10T04:21:33;7.82;;;5.43;;
71558;SDS011;59382;43.852;25.952;2022-12-10T04:24:20;8.25;;;5.53;;
71558;SDS011;59382;43.852;25.952;2022-12-10T04:27:08;8.50;;;5.90;;
71558;SDS011;59382;43.852;25.952;2022-12-10T04:29:37;7.72;;;5.40;;
71558;SDS011;59382;43.852;25.952;2022-12-10T04:32:04;5.90;;;4.57;;
71558;SDS011;59382;43.852;25.952;2022-12-10T04:34:29;4.93;;;4.43;;
71558;SDS011;59382;43.852;25.952;2022-12-10T04:36:56;6.15;;;5.10;;
71558;SDS011;59382;43.852;25.952;2022-12-10T04:39:23;6.53;;;4.90;;
71558;SDS011;59382;43.852;25.952;2022-12-10T04:41:50;5.20;;;4.70;;
71558;SDS011;59382;43.852;25.952;2022-12-10T04:44:16;4.82;;;4.32;;
71558;SDS011;59382;43.852;25.952;2022-12-10T04:46:41;4.75;;;4.28;;
71558;SDS011;59382;43.852;25.952;2022-12-10T04:49:07;5.50;;;4.40;;
71558;SDS011;59382;43.852;25.952;2022-12-10T04:51:34;5.32;;;4.82;;
71558;SDS011;59382;43.852;25.952;2022-12-10T04:54:00;6.63;;;5.03;;
71558;SDS011;59382;43.852;25.952;2022-12-10T04:56:25;7.57;;;4.95;;
71558;SDS011;59382;43.852;25.952;2022-12-10T04:58:51;6.55;;;4.90;;
71558;SDS011;59382;43.852;25.952;2022-12-10T05:01:17;6.50;;;4.75;;
71558;SDS011;59382;43.852;25.952;2022-12-10T05:03:46;7.85;;;5.18;;
71558;SDS011;59382;43.852;25.952;2022-12-10T05:06:12;7.13;;;4.80;;
71558;SDS011;59382;43.852;25.952;2022-12-10T05:08:39;7.15;;;5.20;;
71558;SDS011;59382;43.852;25.952;2022-12-10T05:11:07;6.65;;;4.88;;
71558;SDS011;59382;43.852;25.952;2022-12-10T05:13:34;7.30;;;5.35;;
71558;SDS011;59382;43.852;25.952;2022-12-10T05:16:01;8.10;;;6.28;;
71558;SDS011;59382;43.852;25.952;2022-12-10T05:18:28;9.40;;;5.90;;
71558;SDS011;59382;43.852;25.952;2022-12-10T05:20:54;10.05;;;6.55;;
71558;SDS011;59382;43.852;25.952;2022-12-10T05:23:19;10.35;;;6.43;;
71558;SDS011;59382;43.852;25.952;2022-12-10T05:28:42;8.68;;;6.50;;
71558;SDS011;59382;43.852;25.952;2022-12-10T05:34:04;9.60;;;5.88;;
71558;SDS011;59382;43.852;25.952;2022-12-10T05:36:30;8.82;;;6.45;;
71558;SDS011;59382;43.852;25.952;2022-12-10T05:38:56;10.18;;;7.22;;
71558;SDS011;59382;43.852;25.952;2022-12-10T05:41:23;12.65;;;7.68;;
71558;SDS011;59382;43.852;25.952;2022-12-10T05:43:53;10.95;;;7.22;;
71558;SDS011;59382;43.852;25.952;2022-12-10T05:46:24;11.88;;;6.82;;
71558;SDS011;59382;43.852;25.952;2022-12-10T05:48:51;19.20;;;7.82;;
71558;SDS011;59382;43.852;25.952;2022-12-10T05:51:18;16.60;;;9.35;;
71558;SDS011;59382;43.852;25.952;2022-12-10T05:53:45;15.65;;;9.35;;
71558;SDS011;59382;43.852;25.952;2022-12-10T05:56:12;13.98;;;8.88;;
71558;SDS011;59382;43.852;25.952;2022-12-10T05:58:41;15.63;;;8.30;;
71558;SDS011;59382;43.852;25.952;2022-12-10T06:01:09;13.32;;;8.32;;
71558;SDS011;59382;43.852;25.952;2022-12-10T06:03:36;18.92;;;9.52;;
71558;SDS011;59382;43.852;25.952;2022-12-10T06:06:02;18.13;;;9.73;;
71558;SDS011;59382;43.852;25.952;2022-12-10T06:08:29;12.32;;;8.65;;
71558;SDS011;59382;43.852;25.952;2022-12-10T06:10:54;13.07;;;7.63;;
71558;SDS011;59382;43.852;25.952;2022-12-10T06:13:22;11.48;;;7.85;;
71558;SDS011;59382;43.852;25.952;2022-12-10T06:15:48;9.43;;;6.88;;
71558;SDS011;59382;43.852;25.952;2022-12-10T06:18:13;9.82;;;6.63;;
71558;SDS011;59382;43.852;25.952;2022-12-10T06:20:39;8.30;;;6.10;;
71558;SDS011;59382;43.852;25.952;2022-12-10T06:23:05;9.77;;;7.10;;
71558;SDS011;59382;43.852;25.952;2022-12-10T06:25:31;12.68;;;7.10;;
71558;SDS011;59382;43.852;25.952;2022-12-10T06:27:58;10.07;;;6.38;;
71558;SDS011;59382;43.852;25.952;2022-12-10T06:30:24;9.27;;;6.13;;
71558;SDS011;59382;43.852;25.952;2022-12-10T06:32:50;8.30;;;6.43;;
71558;SDS011;59382;43.852;25.952;2022-12-10T06:35:16;16.92;;;7.10;;
71558;SDS011;59382;43.852;25.952;2022-12-10T06:37:41;19.40;;;8.75;;
71558;SDS011;59382;43.852;25.952;2022-12-10T06:40:07;22.58;;;10.18;;
71558;SDS011;59382;43.852;25.952;2022-12-10T06:42:33;12.73;;;7.97;;
71558;SDS011;59382;43.852;25.952;2022-12-10T06:44:59;20.85;;;9.20;;
71558;SDS011;59382;43.852;25.952;2022-12-10T06:47:24;14.35;;;7.70;;
71558;SDS011;59382;43.852;25.952;2022-12-10T06:49:50;21.17;;;10.77;;
71558;SDS011;59382;43.852;25.952;2022-12-10T06:52:17;13.25;;;8.63;;
71558;SDS011;59382;43.852;25.952;2022-12-10T06:54:43;16.63;;;9.35;;
71558;SDS011;59382;43.852;25.952;2022-12-10T06:57:08;16.02;;;9.90;;
71558;SDS011;59382;43.852;25.952;2022-12-10T06:59:34;18.73;;;9.80;;
71558;SDS011;59382;43.852;25.952;2022-12-10T07:01:59;13.45;;;8.40;;
71558;SDS011;59382;43.852;25.952;2022-12-10T07:04:25;20.15;;;10.65;;
71558;SDS011;59382;43.852;25.952;2022-12-10T07:06:50;20.02;;;11.52;;
71558;SDS011;59382;43.852;25.952;2022-12-10T07:09:16;16.17;;;8.18;;
71558;SDS011;59382;43.852;25.952;2022-12-10T07:11:42;11.23;;;7.53;;
71558;SDS011;59382;43.852;25.952;2022-12-10T07:17:05;11.23;;;5.20;;
71558;SDS011;59382;43.852;25.952;2022-12-10T07:19:30;12.10;;;7.10;;
71558;SDS011;59382;43.852;25.952;2022-12-10T07:21:56;15.90;;;10.63;;
71558;SDS011;59382;43.852;25.952;2022-12-10T07:24:31;13.65;;;7.80;;
71558;SDS011;59382;43.852;25.952;2022-12-10T07:27:00;12.27;;;7.97;;
71558;SDS011;59382;43.852;25.952;2022-12-10T07:34:29;26.30;;;10.07;;
71558;SDS011;59382;43.852;25.952;2022-12-10T07:36:54;17.77;;;9.57;;
71558;SDS011;59382;43.852;25.952;2022-12-10T07:39:20;11.18;;;6.40;;
71558;SDS011;59382;43.852;25.952;2022-12-10T07:41:49;9.43;;;5.85;;
71558;SDS011;59382;43.852;25.952;2022-12-10T07:44:18;9.32;;;5.90;;
71558;SDS011;59382;43.852;25.952;2022-12-10T07:46:46;9.13;;;5.70;;
71558;SDS011;59382;43.852;25.952;2022-12-10T07:49:13;7.40;;;4.57;;
71558;SDS011;59382;43.852;25.952;2022-12-10T07:51:39;10.73;;;5.30;;
71558;SDS011;59382;43.852;25.952;2022-12-10T07:54:05;10.25;;;5.47;;
71558;SDS011;59382;43.852;25.952;2022-12-10T07:56:30;11.23;;;6.07;;
71558;SDS011;59382;43.852;25.952;2022-12-10T07:58:56;10.20;;;5.53;;
71558;SDS011;59382;43.852;25.952;2022-12-10T08:01:22;6.85;;;5.43;;
71558;SDS011;59382;43.852;25.952;2022-12-10T08:03:50;26.52;;;6.50;;
71558;SDS011;59382;43.852;25.952;2022-12-10T08:06:17;9.30;;;5.45;;
71558;SDS011;59382;43.852;25.952;2022-12-10T08:08:44;13.13;;;6.47;;
71558;SDS011;59382;43.852;25.952;2022-12-10T08:11:11;18.83;;;5.80;;
71558;SDS011;59382;43.852;25.952;2022-12-10T08:13:38;11.13;;;5.72;;
71558;SDS011;59382;43.852;25.952;2022-12-10T08:16:07;12.70;;;5.70;;
71558;SDS011;59382;43.852;25.952;2022-12-10T08:18:36;8.60;;;6.00;;
71558;SDS011;59382;43.852;25.952;2022-12-10T08:21:03;21.05;;;6.53;;
71558;SDS011;59382;43.852;25.952;2022-12-10T08:23:37;8.98;;;5.90;;
71558;SDS011;59382;43.852;25.952;2022-12-10T08:26:06;9.27;;;5.65;;
71558;SDS011;59382;43.852;25.952;2022-12-10T08:28:34;12.98;;;7.75;;
71558;SDS011;59382;43.852;25.952;2022-12-10T08:31:00;9.30;;;5.50;;
71558;SDS011;59382;43.852;25.952;2022-12-10T08:33:26;7.22;;;5.68;;
71558;SDS011;59382;43.852;25.952;2022-12-10T08:35:51;10.38;;;6.70;;
71558;SDS011;59382;43.852;25.952;2022-12-10T08:38:17;18.65;;;5.57;;
71558;SDS011;59382;43.852;25.952;2022-12-10T08:40:43;7.10;;;5.57;;
71558;SDS011;59382;43.852;25.952;2022-12-10T08:43:12;9.10;;;5.30;;
71558;SDS011;59382;43.852;25.952;2022-12-10T08:45:37;9.98;;;5.40;;
71558;SDS011;59382;43.852;25.952;2022-12-10T08:48:03;9.23;;;6.22;;
71558;SDS011;59382;43.852;25.952;2022-12-10T08:50:28;8.85;;;6.18;;
71558;SDS011;59382;43.852;25.952;2022-12-10T08:52:54;16.10;;;6.70;;
71558;SDS011;59382;43.852;25.952;2022-12-10T08:55:19;11.77;;;7.30;;
71558;SDS011;59382;43.852;25.952;2022-12-10T08:57:45;16.73;;;7.10;;
71558;SDS011;59382;43.852;25.952;2022-12-10T09:00:11;8.80;;;5.78;;
71558;SDS011;59382;43.852;25.952;2022-12-10T09:02:38;11.48;;;6.28;;
71558;SDS011;59382;43.852;25.952;2022-12-10T09:05:06;13.23;;;6.00;;
71558;SDS011;59382;43.852;25.952;2022-12-10T09:07:32;19.02;;;7.00;;
71558;SDS011;59382;43.852;25.952;2022-12-10T09:09:58;14.75;;;5.63;;
71558;SDS011;59382;43.852;25.952;2022-12-10T09:12:23;11.05;;;6.03;;
71558;SDS011;59382;43.852;25.952;2022-12-10T09:14:49;12.55;;;5.32;;
71558;SDS011;59382;43.852;25.952;2022-12-10T09:17:15;18.67;;;6.45;;
71558;SDS011;59382;43.852;25.952;2022-12-10T09:19:40;14.70;;;5.82;;
71558;SDS011;59382;43.852;25.952;2022-12-10T09:22:06;8.77;;;5.55;;
71558;SDS011;59382;43.852;25.952;2022-12-10T09:24:32;7.05;;;5.45;;
71558;SDS011;59382;43.852;25.952;2022-12-10T09:26:57;8.98;;;5.70;;
71558;SDS011;59382;43.852;25.952;2022-12-10T09:29:24;8.10;;;5.65;;
71558;SDS011;59382;43.852;25.952;2022-12-10T09:31:50;11.27;;;5.50;;
71558;SDS011;59382;43.852;25.952;2022-12-10T09:34:16;11.07;;;6.30;;
71558;SDS011;59382;43.852;25.952;2022-12-10T09:36:42;11.57;;;5.97;;
71558;SDS011;59382;43.852;25.952;2022-12-10T09:39:07;10.65;;;6.55;;
71558;SDS011;59382;43.852;25.952;2022-12-10T09:44:46;12.88;;;8.43;;
71558;SDS011;59382;43.852;25.952;2022-12-10T09:50:47;16.40;;;8.20;;
71558;SDS011;59382;43.852;25.952;2022-12-10T09:53:28;18.15;;;8.13;;
71558;SDS011;59382;43.852;25.952;2022-12-10T09:55:58;13.63;;;8.60;;
71558;SDS011;59382;43.852;25.952;2022-12-10T09:58:25;9.82;;;7.78;;
71558;SDS011;59382;43.852;25.952;2022-12-10T10:01:00;14.02;;;7.90;;
71558;SDS011;59382;43.852;25.952;2022-12-10T10:03:31;14.98;;;8.48;;
71558;SDS011;59382;43.852;25.952;2022-12-10T10:06:00;14.75;;;8.90;;
71558;SDS011;59382;43.852;25.952;2022-12-10T10:10:58;11.45;;;7.85;;
71558;SDS011;59382;43.852;25.952;2022-12-10T10:13:27;17.45;;;7.90;;
71558;SDS011;59382;43.852;25.952;2022-12-10T10:16:34;28.60;;;8.68;;
71558;SDS011;59382;43.852;25.952;2022-12-10T10:19:11;12.07;;;8.13;;
71558;SDS011;59382;43.852;25.952;2022-12-10T10:21:48;11.32;;;7.55;;
71558;SDS011;59382;43.852;25.952;2022-12-10T10:24:15;11.50;;;7.68;;
71558;SDS011;59382;43.852;25.952;2022-12-10T10:26:44;13.07;;;7.03;;
71558;SDS011;59382;43.852;25.952;2022-12-10T10:29:11;11.40;;;7.13;;
71558;SDS011;59382;43.852;25.952;2022-12-10T10:31:41;12.32;;;6.60;;
71558;SDS011;59382;43.852;25.952;2022-12-10T10:34:18;10.68;;;6.43;;
71558;SDS011;59382;43.852;25.952;2022-12-10T10:36:45;13.93;;;6.68;;
71558;SDS011;59382;43.852;25.952;2022-12-10T10:41:43;10.15;;;6.75;;
71558;SDS011;59382;43.852;25.952;2022-12-10T10:44:24;10.85;;;6.65;;
71558;SDS011;59382;43.852;25.952;2022-12-10T10:46:53;9.70;;;6.53;;
71558;SDS011;59382;43.852;25.952;2022-12-10T10:49:27;9.73;;;6.45;;
71558;SDS011;59382;43.852;25.952;2022-12-10T10:51:58;11.82;;;6.88;;
71558;SDS011;59382;43.852;25.952;2022-12-10T10:54:33;10.95;;;7.22;;
71558;SDS011;59382;43.852;25.952;2022-12-10T10:57:04;21.00;;;9.10;;
71558;SDS011;59382;43.852;25.952;2022-12-10T10:59:43;19.67;;;7.57;;
71558;SDS011;59382;43.852;25.952;2022-12-10T11:02:30;17.33;;;8.60;;
71558;SDS011;59382;43.852;25.952;2022-12-10T11:05:29;17.48;;;9.00;;
71558;SDS011;59382;43.852;25.952;2022-12-10T11:08:05;11.35;;;8.98;;
71558;SDS011;59382;43.852;25.952;2022-12-10T11:10:40;16.67;;;9.45;;
71558;SDS011;59382;43.852;25.952;2022-12-10T11:15:58;15.43;;;9.68;;
71558;SDS011;59382;43.852;25.952;2022-12-10T11:21:02;15.80;;;9.40;;
71558;SDS011;59382;43.852;25.952;2022-12-10T11:23:45;18.95;;;10.18;;
71558;SDS011;59382;43.852;25.952;2022-12-10T11:29:11;18.23;;;10.38;;
71558;SDS011;59382;43.852;25.952;2022-12-10T11:38:03;17.60;;;10.90;;
71558;SDS011;59382;43.852;25.952;2022-12-10T11:51:40;18.80;;;9.93;;
71558;SDS011;59382;43.852;25.952;2022-12-10T12:19:19;17.70;;;11.32;;
71558;SDS011;59382;43.852;25.952;2022-12-10T12:21:57;19.42;;;12.00;;
71558;SDS011;59382;43.852;25.952;2022-12-10T12:24:33;19.08;;;12.20;;
71558;SDS011;59382;43.852;25.952;2022-12-10T12:27:25;23.63;;;13.30;;
71558;SDS011;59382;43.852;25.952;2022-12-10T12:32:21;18.40;;;10.90;;
71558;SDS011;59382;43.852;25.952;2022-12-10T12:34:53;14.52;;;10.32;;
71558;SDS011;59382;43.852;25.952;2022-12-10T12:37:35;16.52;;;10.60;;
71558;SDS011;59382;43.852;25.952;2022-12-10T12:40:50;24.38;;;11.20;;
71558;SDS011;59382;43.852;25.952;2022-12-10T12:43:02;19.15;;;10.40;;
71558;SDS011;59382;43.852;25.952;2022-12-10T12:45:48;20.17;;;11.48;;
71558;SDS011;59382;43.852;25.952;2022-12-10T12:53:32;23.65;;;11.65;;
71558;SDS011;59382;43.852;25.952;2022-12-10T13:01:30;19.30;;;11.77;;
71558;SDS011;59382;43.852;25.952;2022-12-10T13:04:16;20.02;;;11.45;;
71558;SDS011;59382;43.852;25.952;2022-12-10T13:06:42;28.52;;;12.20;;
71558;SDS011;59382;43.852;25.952;2022-12-10T13:09:47;31.77;;;11.93;;
71558;SDS011;59382;43.852;25.952;2022-12-10T13:12:32;17.73;;;11.23;;
71558;SDS011;59382;43.852;25.952;2022-12-10T13:20:41;30.00;;;14.38;;
71558;SDS011;59382;43.852;25.952;2022-12-10T13:31:44;30.00;;;15.65;;
71558;SDS011;59382;43.852;25.952;2022-12-10T13:34:32;27.90;;;14.32;;
71558;SDS011;59382;43.852;25.952;2022-12-10T13:42:52;24.55;;;14.15;;
71558;SDS011;59382;43.852;25.952;2022-12-10T13:47:51;29.63;;;16.75;;
71558;SDS011;59382;43.852;25.952;2022-12-10T13:50:45;36.22;;;20.55;;
71558;SDS011;59382;43.852;25.952;2022-12-10T14:01:13;29.95;;;14.95;;
71558;SDS011;59382;43.852;25.952;2022-12-10T14:03:48;27.40;;;14.52;;
71558;SDS011;59382;43.852;25.952;2022-12-10T14:06:25;36.90;;;15.23;;
71558;SDS011;59382;43.852;25.952;2022-12-10T14:11:40;30.92;;;15.30;;
71558;SDS011;59382;43.852;25.952;2022-12-10T14:14:13;29.30;;;14.63;;
71558;SDS011;59382;43.852;25.952;2022-12-10T14:16:47;26.70;;;14.60;;
71558;SDS011;59382;43.852;25.952;2022-12-10T14:19:13;30.48;;;15.05;;
71558;SDS011;59382;43.852;25.952;2022-12-10T14:21:41;26.70;;;14.27;;
71558;SDS011;59382;43.852;25.952;2022-12-10T14:24:26;32.05;;;14.88;;
71558;SDS011;59382;43.852;25.952;2022-12-10T14:27:17;32.15;;;13.60;;
71558;SDS011;59382;43.852;25.952;2022-12-10T14:29:45;24.58;;;13.38;;
71558;SDS011;59382;43.852;25.952;2022-12-10T14:32:16;23.77;;;13.20;;
71558;SDS011;59382;43.852;25.952;2022-12-10T14:34:58;25.63;;;14.23;;
71558;SDS011;59382;43.852;25.952;2022-12-10T14:37:25;33.95;;;14.93;;
71558;SDS011;59382;43.852;25.952;2022-12-10T14:39:56;27.60;;;14.90;;
71558;SDS011;59382;43.852;25.952;2022-12-10T14:42:23;25.83;;;15.93;;
71558;SDS011;59382;43.852;25.952;2022-12-10T14:44:51;26.17;;;14.80;;
71558;SDS011;59382;43.852;25.952;2022-12-10T14:47:22;22.38;;;13.93;;
71558;SDS011;59382;43.852;25.952;2022-12-10T14:49:50;28.52;;;12.65;;
71558;SDS011;59382;43.852;25.952;2022-12-10T14:52:19;19.60;;;12.15;;
71558;SDS011;59382;43.852;25.952;2022-12-10T14:54:46;24.25;;;12.82;;
71558;SDS011;59382;43.852;25.952;2022-12-10T14:57:24;21.58;;;12.85;;
71558;SDS011;59382;43.852;25.952;2022-12-10T15:02:38;26.60;;;12.13;;
71558;SDS011;59382;43.852;25.952;2022-12-10T15:05:52;23.40;;;12.68;;
71558;SDS011;59382;43.852;25.952;2022-12-10T15:08:00;23.58;;;12.45;;
71558;SDS011;59382;43.852;25.952;2022-12-10T15:10:34;20.27;;;12.27;;
71558;SDS011;59382;43.852;25.952;2022-12-10T15:13:03;24.05;;;13.15;;
71558;SDS011;59382;43.852;25.952;2022-12-10T15:15:35;24.17;;;14.23;;
71558;SDS011;59382;43.852;25.952;2022-12-10T15:20:36;29.88;;;16.48;;
71558;SDS011;59382;43.852;25.952;2022-12-10T15:23:17;33.97;;;16.00;;
71558;SDS011;59382;43.852;25.952;2022-12-10T15:26:32;42.03;;;17.38;;
71558;SDS011;59382;43.852;25.952;2022-12-10T15:28:43;39.80;;;17.90;;
71558;SDS011;59382;43.852;25.952;2022-12-10T15:33:51;32.67;;;20.52;;
71558;SDS011;59382;43.852;25.952;2022-12-10T15:36:31;24.52;;;14.35;;
71558;SDS011;59382;43.852;25.952;2022-12-10T15:38:57;23.92;;;14.32;;
71558;SDS011;59382;43.852;25.952;2022-12-10T15:41:45;24.95;;;15.32;;
71558;SDS011;59382;43.852;25.952;2022-12-10T15:46:58;25.50;;;13.10;;
71558;SDS011;59382;43.852;25.952;2022-12-10T15:49:30;20.65;;;12.05;;
71558;SDS011;59382;43.852;25.952;2022-12-10T15:51:56;25.27;;;13.38;;
71558;SDS011;59382;43.852;25.952;2022-12-10T15:54:27;18.38;;;12.30;;
71558;SDS011;59382;43.852;25.952;2022-12-10T15:56:58;21.35;;;11.90;;
71558;SDS011;59382;43.852;25.952;2022-12-10T15:59:24;19.38;;;11.82;;
71558;SDS011;59382;43.852;25.952;2022-12-10T16:01:50;29.30;;;12.80;;
71558;SDS011;59382;43.852;25.952;2022-12-10T16:04:15;21.50;;;11.00;;
71558;SDS011;59382;43.852;25.952;2022-12-10T16:06:41;25.98;;;11.40;;
71558;SDS011;59382;43.852;25.952;2022-12-10T16:09:08;26.50;;;12.32;;
71558;SDS011;59382;43.852;25.952;2022-12-10T16:11:34;23.73;;;11.90;;
71558;SDS011;59382;43.852;25.952;2022-12-10T16:14:00;20.02;;;11.27;;
71558;SDS011;59382;43.852;25.952;2022-12-10T16:16:27;21.75;;;13.43;;
71558;SDS011;59382;43.852;25.952;2022-12-10T16:18:52;23.98;;;11.98;;
71558;SDS011;59382;43.852;25.952;2022-12-10T16:21:18;27.85;;;11.13;;
71558;SDS011;59382;43.852;25.952;2022-12-10T16:23:44;22.70;;;12.32;;
71558;SDS011;59382;43.852;25.952;2022-12-10T16:26:14;27.63;;;10.82;;
71558;SDS011;59382;43.852;25.952;2022-12-10T16:28:42;23.08;;;12.43;;
71558;SDS011;59382;43.852;25.952;2022-12-10T16:31:10;18.70;;;11.07;;
71558;SDS011;59382;43.852;25.952;2022-12-10T16:33:37;15.73;;;10.45;;
71558;SDS011;59382;43.852;25.952;2022-12-10T16:36:03;16.33;;;10.13;;
71558;SDS011;59382;43.852;25.952;2022-12-10T16:38:28;25.92;;;11.52;;
71558;SDS011;59382;43.852;25.952;2022-12-10T16:40:54;20.17;;;11.73;;
71558;SDS011;59382;43.852;25.952;2022-12-10T16:43:21;21.20;;;12.15;;
71558;SDS011;59382;43.852;25.952;2022-12-10T16:45:49;24.75;;;12.23;;
71558;SDS011;59382;43.852;25.952;2022-12-10T16:48:16;26.08;;;13.30;;
71558;SDS011;59382;43.852;25.952;2022-12-10T16:50:42;26.40;;;13.48;;
71558;SDS011;59382;43.852;25.952;2022-12-10T16:53:18;25.08;;;13.32;;
71558;SDS011;59382;43.852;25.952;2022-12-10T16:55:51;21.40;;;12.15;;
71558;SDS011;59382;43.852;25.952;2022-12-10T16:58:18;23.15;;;13.25;;
71558;SDS011;59382;43.852;25.952;2022-12-10T17:00:45;23.13;;;12.65;;
71558;SDS011;59382;43.852;25.952;2022-12-10T17:03:13;22.55;;;12.38;;
71558;SDS011;59382;43.852;25.952;2022-12-10T17:05:53;19.88;;;10.95;;